createdAt,value
2019-02-15T00:04:35.126Z,52.33
2019-02-15T00:09:37.561Z,58.43
2019-02-15T00:14:48.801Z,56.17
2019-02-15T00:19:54.169Z,59.33
2019-02-15T00:24:56.622Z,54.77
2019-02-15T00:29:59.062Z,57.07
2019-02-15T00:35:01.510Z,49.17
2019-02-15T00:40:03.973Z,47.60
2019-02-15T00:45:06.407Z,52.73
2019-02-15T00:50:08.873Z,52.13
2019-02-15T00:55:26.478Z,47.83
2019-02-15T01:00:28.926Z,47.30
2019-02-15T01:05:31.364Z,53.10
2019-02-15T01:10:36.633Z,54.17
2019-02-15T01:15:39.079Z,44.60
2019-02-15T01:20:41.528Z,57.27
2019-02-15T01:25:44.005Z,48.83
2019-02-15T01:30:52.616Z,51.67
2019-02-15T01:35:55.050Z,57.27
2019-02-15T01:41:00.126Z,53.47
2019-02-15T01:46:08.120Z,55.87
2019-02-15T01:51:10.554Z,55.47
2019-02-15T01:56:13.000Z,50.27
2019-02-15T02:01:15.425Z,53.40
2019-02-15T02:06:17.854Z,52.33
2019-02-15T02:11:20.296Z,57.23
2019-02-15T02:16:22.746Z,60.60
2019-02-15T02:21:25.183Z,56.87
2019-02-15T02:26:27.611Z,50.50
2019-02-15T02:31:30.086Z,48.27
2019-02-15T02:36:47.649Z,52.30
2019-02-15T02:41:50.092Z,55.27
2019-02-15T02:46:52.526Z,57.47
2019-02-15T02:51:54.985Z,56.03
2019-02-15T02:56:57.424Z,51.47
2019-02-15T03:01:59.851Z,58.63
2019-02-15T03:07:02.295Z,57.00
2019-02-15T03:12:04.732Z,56.13
2019-02-15T03:17:07.147Z,50.13
2019-02-15T03:22:09.585Z,51.70
2019-02-15T03:27:12.020Z,54.87
2019-02-15T03:32:14.486Z,62.13
2019-02-15T03:37:16.918Z,57.60
2019-02-15T03:42:19.356Z,52.50
2019-02-15T03:47:21.791Z,60.33
2019-02-15T03:52:24.222Z,57.03
2019-02-15T03:57:26.676Z,61.43
2019-02-15T04:02:29.113Z,53.60
2019-02-15T04:07:31.551Z,52.47
2019-02-15T04:12:33.991Z,52.73
2019-02-15T04:17:36.422Z,53.00
2019-02-15T04:22:38.854Z,54.53
2019-02-15T04:27:41.301Z,48.87
2019-02-15T04:32:43.739Z,55.50
2019-02-15T04:37:46.181Z,55.90
2019-02-15T04:42:48.609Z,67.10
2019-02-15T04:47:51.041Z,63.27
2019-02-15T04:52:53.480Z,55.80
2019-02-15T04:57:55.916Z,50.73
2019-02-15T05:02:58.478Z,51.23
2019-02-15T05:08:00.944Z,47.60
2019-02-15T05:13:03.378Z,50.50
2019-02-15T05:18:16.209Z,50.57
2019-02-15T05:23:17.121Z,51.10
2019-02-15T05:28:19.544Z,54.80
2019-02-15T05:33:21.983Z,49.53
2019-02-15T05:38:24.452Z,52.53
2019-02-15T05:43:26.895Z,53.23
2019-02-15T05:48:29.336Z,51.00
2019-02-15T05:53:31.793Z,57.10
2019-02-15T05:58:34.243Z,52.90
2019-02-15T06:03:36.661Z,42.67
2019-02-15T06:08:39.105Z,44.40
2019-02-15T06:13:41.592Z,50.07
2019-02-15T06:18:44.010Z,48.43
2019-02-15T06:23:46.450Z,46.00
2019-02-15T06:28:48.895Z,50.60
2019-02-15T06:33:51.335Z,47.53
2019-02-15T06:38:53.757Z,45.00
2019-02-15T06:43:56.209Z,50.57
2019-02-15T06:48:58.750Z,44.70
2019-02-15T06:54:01.207Z,52.40
2019-02-15T06:59:03.651Z,52.17
2019-02-15T07:04:06.097Z,43.87
2019-02-15T07:09:08.526Z,54.13
2019-02-15T07:14:10.962Z,44.57
2019-02-15T07:19:13.390Z,51.27
2019-02-15T07:24:15.826Z,45.73
2019-02-15T07:29:18.287Z,46.50
2019-02-15T07:34:20.727Z,46.00
2019-02-15T07:39:23.160Z,46.97
2019-02-15T07:44:25.609Z,44.20
2019-02-15T07:49:28.136Z,41.37
2019-02-15T07:54:30.580Z,49.90
2019-02-15T07:59:33.034Z,44.70
2019-02-15T08:04:35.474Z,43.50
2019-02-15T08:09:37.925Z,44.23
2019-02-15T08:14:40.359Z,44.77
2019-02-15T08:19:42.827Z,40.73
2019-02-15T08:24:45.268Z,39.37
2019-02-15T08:29:47.729Z,33.77
2019-02-15T08:34:51.663Z,47.40
2019-02-15T08:39:54.128Z,40.07
2019-02-15T08:44:56.574Z,41.87
2019-02-15T08:49:59.012Z,44.80
2019-02-15T08:55:01.458Z,45.53
2019-02-15T09:00:03.900Z,51.33
2019-02-15T09:05:06.350Z,42.33
2019-02-15T09:10:08.801Z,49.07
2019-02-15T09:15:11.512Z,35.17
2019-02-15T09:20:13.968Z,46.43
2019-02-15T09:25:16.423Z,38.70
2019-02-15T09:30:19.924Z,43.40
2019-02-15T09:35:22.477Z,47.97
2019-02-15T09:40:24.931Z,33.50
2019-02-15T09:45:27.431Z,19.20
2019-02-15T09:50:29.876Z,17.73
2019-02-15T09:55:32.312Z,23.63
2019-02-15T10:00:34.754Z,28.90
2019-02-15T10:05:37.209Z,16.50
2019-02-15T10:10:39.664Z,17.83
2019-02-15T10:15:42.224Z,17.10
2019-02-15T10:20:44.603Z,18.43
2019-02-15T10:25:47.059Z,15.40
2019-02-15T10:30:49.512Z,16.53
2019-02-15T10:35:51.961Z,15.73
2019-02-15T10:40:54.401Z,17.17
2019-02-15T10:45:56.849Z,13.13
2019-02-15T10:50:59.428Z,13.23
2019-02-15T10:56:01.873Z,13.47
2019-02-15T11:01:04.310Z,18.00
2019-02-15T11:06:06.759Z,13.67
2019-02-15T11:11:09.204Z,13.40
2019-02-15T11:16:11.672Z,13.47
2019-02-15T11:21:14.101Z,12.87
2019-02-15T11:26:24.549Z,11.77
2019-02-15T11:31:18.975Z,14.70
2019-02-15T11:36:21.409Z,12.37
2019-02-15T11:41:23.854Z,10.67
2019-02-15T11:46:26.291Z,14.97
2019-02-15T11:51:28.741Z,11.27
2019-02-15T11:56:31.183Z,10.50
2019-02-15T12:01:33.616Z,14.40
2019-02-15T12:06:36.047Z,12.53
2019-02-15T12:11:38.478Z,9.90
2019-02-15T12:16:40.910Z,10.47
2019-02-15T12:21:43.346Z,12.10
2019-02-15T12:26:45.776Z,9.73
2019-02-15T12:31:48.233Z,13.43
2019-02-15T12:36:50.676Z,10.40
2019-02-15T12:41:53.124Z,10.63
2019-02-15T12:46:55.570Z,11.23
2019-02-15T12:51:58.142Z,6.67
2019-02-15T12:57:00.575Z,6.67
2019-02-15T13:02:03.018Z,5.30
2019-02-15T13:07:05.458Z,6.73
2019-02-15T13:12:07.901Z,6.40
2019-02-15T13:17:10.353Z,8.33
2019-02-15T13:22:12.792Z,5.70
2019-02-15T13:27:15.222Z,7.30
2019-02-15T13:32:17.655Z,5.97
2019-02-15T13:37:20.107Z,6.07
2019-02-15T13:42:22.539Z,8.60
2019-02-15T13:47:34.010Z,9.83
2019-02-15T13:52:27.424Z,9.07
2019-02-15T13:57:29.869Z,11.40
2019-02-15T14:02:32.340Z,7.33
2019-02-15T14:07:34.777Z,6.93
2019-02-15T14:12:37.227Z,12.17
2019-02-15T14:17:44.920Z,11.40
2019-02-15T14:22:42.129Z,8.27
2019-02-15T14:27:44.554Z,8.20
2019-02-15T14:32:47.047Z,10.73
2019-02-15T14:37:49.484Z,10.27
2019-02-15T14:42:51.928Z,8.17
2019-02-15T14:47:55.462Z,8.63
2019-02-15T14:52:56.808Z,8.83
2019-02-15T14:57:59.284Z,10.73
2019-02-15T15:03:01.732Z,7.03
2019-02-15T15:08:04.208Z,11.07
2019-02-15T15:13:06.684Z,9.10
2019-02-15T15:18:13.016Z,8.07
2019-02-15T15:23:11.543Z,11.30
2019-02-15T15:28:13.967Z,8.20
2019-02-15T15:33:16.415Z,11.77
2019-02-15T15:38:19.979Z,8.30
2019-02-15T15:43:22.422Z,8.23
2019-02-15T15:48:24.867Z,9.23
2019-02-15T15:53:27.338Z,10.63
2019-02-15T15:58:29.795Z,8.93
2019-02-15T16:03:32.266Z,12.53
2019-02-15T16:08:34.713Z,11.63
2019-02-15T16:13:37.160Z,12.10
2019-02-15T16:18:39.599Z,11.33
2019-02-15T16:23:42.060Z,9.60
2019-02-15T16:28:44.562Z,9.73
2019-02-15T16:33:47.078Z,12.50
2019-02-15T16:38:49.466Z,7.47
2019-02-15T16:43:52.016Z,11.57
2019-02-15T16:48:54.456Z,8.33
2019-02-15T16:53:56.916Z,7.23
2019-02-15T16:58:59.392Z,10.33
2019-02-15T17:04:01.855Z,8.47
2019-02-15T17:09:04.306Z,8.40
2019-02-15T17:14:06.760Z,9.53
2019-02-15T17:19:09.189Z,10.37
2019-02-15T17:24:11.630Z,8.27
2019-02-15T17:29:14.085Z,9.80
2019-02-15T17:34:16.548Z,7.57
2019-02-15T17:39:18.984Z,7.87
2019-02-15T17:44:21.429Z,9.53
2019-02-15T17:49:23.880Z,10.17
2019-02-15T17:54:26.325Z,9.53
2019-02-15T17:59:28.790Z,10.07
2019-02-15T18:04:31.301Z,13.10
2019-02-15T18:09:33.740Z,13.63
2019-02-15T18:14:36.181Z,15.53
2019-02-15T18:19:46.898Z,11.93
2019-02-15T18:24:41.064Z,11.93
2019-02-15T18:29:43.530Z,11.97
2019-02-15T18:34:45.971Z,15.20
2019-02-15T18:39:48.549Z,15.60
2019-02-15T18:44:51.274Z,14.87
2019-02-15T18:49:53.727Z,12.87
2019-02-15T18:54:56.183Z,14.50
2019-02-15T18:59:58.675Z,15.83
2019-02-15T19:05:01.303Z,15.90
2019-02-15T19:10:03.763Z,17.60
2019-02-15T19:15:06.212Z,15.93
2019-02-15T19:20:08.678Z,15.07
2019-02-15T19:25:11.107Z,15.53
2019-02-15T19:30:13.586Z,20.47
2019-02-15T19:35:16.044Z,21.50
2019-02-15T19:40:18.476Z,19.43
2019-02-15T19:45:20.937Z,19.37
2019-02-15T19:50:23.389Z,17.30
2019-02-15T19:55:25.837Z,14.57
2019-02-15T20:00:28.289Z,18.43
2019-02-15T20:05:30.738Z,17.00
2019-02-15T20:10:33.202Z,17.50
2019-02-15T20:15:35.647Z,17.73
2019-02-15T20:20:38.098Z,22.57
2019-02-15T20:25:40.535Z,26.60
2019-02-15T20:30:43.032Z,23.93
2019-02-15T20:35:45.462Z,19.33
2019-02-15T20:40:48.080Z,22.03
2019-02-15T20:45:50.338Z,15.03
2019-02-15T20:50:52.806Z,18.50
2019-02-15T20:55:55.251Z,13.97
2019-02-15T21:00:57.731Z,15.40
2019-02-15T21:06:00.176Z,14.80
2019-02-15T21:11:02.603Z,14.90
2019-02-15T21:16:05.060Z,13.43
2019-02-15T21:21:07.517Z,11.07
2019-02-15T21:26:09.985Z,12.20
2019-02-15T21:31:12.449Z,16.30
2019-02-15T21:36:14.989Z,12.90
2019-02-15T21:41:17.468Z,12.67
2019-02-15T21:46:19.914Z,14.33
2019-02-15T21:51:22.360Z,11.93
2019-02-15T21:56:24.795Z,11.97
2019-02-15T22:01:27.276Z,15.50
2019-02-15T22:06:29.732Z,13.23
2019-02-15T22:11:32.169Z,13.67
2019-02-15T22:16:34.616Z,16.30
2019-02-15T22:21:37.058Z,12.07
2019-02-15T22:26:39.512Z,15.07
2019-02-15T22:31:41.942Z,12.97
2019-02-15T22:36:44.386Z,12.27
2019-02-15T22:41:46.846Z,13.37
2019-02-15T22:46:49.288Z,13.77
2019-02-15T22:51:51.724Z,16.37
2019-02-15T22:56:54.179Z,14.53
2019-02-15T23:01:56.627Z,16.93
2019-02-15T23:06:59.071Z,14.53
2019-02-15T23:12:01.510Z,14.83
2019-02-15T23:17:03.964Z,13.43
2019-02-15T23:22:06.418Z,18.10
2019-02-15T23:27:08.864Z,12.07
2019-02-15T23:32:11.294Z,20.97
2019-02-15T23:37:13.738Z,28.40
2019-02-15T23:42:16.186Z,26.10
2019-02-15T23:47:18.640Z,18.07
2019-02-15T23:52:21.083Z,18.03
2019-02-15T23:57:23.531Z,17.73
